createdAt,value
2023-04-07T00:00:44.079Z,7.15
2023-04-07T00:01:44.113Z,7.13
2023-04-07T00:02:44.795Z,7.17
2023-04-07T00:03:44.232Z,7.10
2023-04-07T00:04:44.066Z,7.17
2023-04-07T00:05:43.996Z,7.15
2023-04-07T00:06:43.989Z,7.21
2023-04-07T00:07:55.228Z,7.11
2023-04-07T00:08:45.035Z,7.17
2023-04-07T00:09:43.959Z,7.18
2023-04-07T00:10:43.951Z,7.18
2023-04-07T00:11:43.937Z,7.18
2023-04-07T00:12:43.922Z,7.15
2023-04-07T00:13:44.018Z,7.21
2023-04-07T00:14:43.908Z,7.18
2023-04-07T00:15:43.945Z,7.21
2023-04-07T00:16:43.957Z,7.15
2023-04-07T00:17:43.966Z,7.14
2023-04-07T00:18:43.862Z,7.18
2023-04-07T00:19:43.879Z,7.14
2023-04-07T00:20:43.851Z,7.11
2023-04-07T00:21:43.903Z,7.11
2023-04-07T00:22:43.820Z,7.11
2023-04-07T00:23:43.832Z,7.11
2023-04-07T00:24:43.809Z,7.11
2023-04-07T00:25:43.832Z,7.07
2023-04-07T00:26:43.846Z,7.06
2023-04-07T00:27:43.784Z,7.03
2023-04-07T00:28:43.774Z,7.02
2023-04-07T00:29:43.778Z,7.05
2023-04-07T00:30:43.779Z,7.10
2023-04-07T00:31:43.868Z,6.97
2023-04-07T00:32:43.829Z,6.99
2023-04-07T00:33:43.705Z,7.07
2023-04-07T00:34:43.700Z,7.15
2023-04-07T00:35:43.697Z,7.05
2023-04-07T00:36:43.682Z,7.07
2023-04-07T00:37:43.752Z,7.10
2023-04-07T00:38:43.657Z,7.06
2023-04-07T00:39:43.646Z,6.99
2023-04-07T00:40:43.645Z,6.95
2023-04-07T00:41:43.651Z,7.10
2023-04-07T00:42:43.684Z,7.13
2023-04-07T00:43:43.634Z,6.97
2023-04-07T00:44:43.597Z,7.03
2023-04-07T00:45:43.608Z,7.03
2023-04-07T00:46:43.681Z,7.00
2023-04-07T00:47:43.629Z,7.02
2023-04-07T00:48:43.565Z,7.03
2023-04-07T00:49:43.588Z,6.99
2023-04-07T00:50:43.555Z,7.02
2023-04-07T00:51:43.524Z,7.00
2023-04-07T00:52:43.576Z,7.00
2023-04-07T00:53:43.552Z,7.03
2023-04-07T00:54:43.503Z,7.05
2023-04-07T00:55:43.535Z,7.03
2023-04-07T00:56:43.933Z,7.02
2023-04-07T00:57:43.523Z,6.97
2023-04-07T00:58:43.453Z,7.00
2023-04-07T00:59:43.453Z,7.05
2023-04-07T01:00:43.427Z,7.05
2023-04-07T01:01:43.522Z,6.99
2023-04-07T01:02:43.753Z,6.97
2023-04-07T01:03:43.828Z,7.02
2023-04-07T01:04:43.504Z,7.03
2023-04-07T01:05:43.431Z,7.03
2023-04-07T01:06:43.372Z,6.99
2023-04-07T01:07:43.362Z,7.03
2023-04-07T01:08:43.379Z,7.06
2023-04-07T01:09:43.402Z,6.99
2023-04-07T01:10:43.384Z,7.05
2023-04-07T01:11:43.321Z,7.06
2023-04-07T01:12:43.303Z,7.05
2023-04-07T01:13:43.293Z,6.97
2023-04-07T01:14:43.373Z,7.07
2023-04-07T01:15:43.272Z,7.03
2023-04-07T01:16:43.269Z,7.06
2023-04-07T01:17:43.279Z,7.02
2023-04-07T01:18:43.244Z,7.02
2023-04-07T01:19:43.219Z,6.99
2023-04-07T01:20:43.314Z,6.97
2023-04-07T01:21:43.204Z,7.07
2023-04-07T01:22:43.197Z,6.99
2023-04-07T01:23:43.184Z,7.02
2023-04-07T01:24:43.172Z,6.99
2023-04-07T01:25:43.238Z,7.13
2023-04-07T01:26:43.176Z,7.03
2023-04-07T01:27:43.158Z,7.07
2023-04-07T01:28:43.139Z,7.10
2023-04-07T01:29:43.130Z,7.14
2023-04-07T01:30:43.189Z,7.11
2023-04-07T01:31:43.193Z,7.11
2023-04-07T01:32:43.147Z,7.06
2023-04-07T01:33:43.116Z,7.07
2023-04-07T01:34:43.083Z,7.15
2023-04-07T01:35:43.131Z,7.07
2023-04-07T01:36:43.096Z,7.18
2023-04-07T01:37:43.050Z,7.06
2023-04-07T01:38:43.040Z,7.02
2023-04-07T01:39:43.031Z,7.11
2023-04-07T01:40:43.098Z,7.15
2023-04-07T01:41:43.011Z,7.05
2023-04-07T01:42:42.990Z,7.03
2023-04-07T01:43:44.404Z,6.97
2023-04-07T01:44:42.984Z,6.97
2023-04-07T01:45:43.038Z,7.13
2023-04-07T01:46:43.140Z,7.07
2023-04-07T01:47:42.963Z,7.13
2023-04-07T01:48:43.013Z,6.99
2023-04-07T01:49:42.942Z,6.99
2023-04-07T01:50:42.909Z,7.15
2023-04-07T01:51:42.905Z,7.05
2023-04-07T01:52:42.908Z,7.05
2023-04-07T01:53:42.942Z,6.99
2023-04-07T01:54:42.869Z,6.99
2023-04-07T01:55:42.922Z,7.06
2023-04-07T01:56:42.868Z,7.10
2023-04-07T01:57:42.905Z,6.97
2023-04-07T01:58:42.851Z,7.06
2023-04-07T01:59:42.818Z,7.05
2023-04-07T02:00:42.917Z,7.05
2023-04-07T02:01:42.892Z,7.06
2023-04-07T02:02:42.895Z,7.06
2023-04-07T02:03:42.903Z,7.10
2023-04-07T02:04:42.792Z,7.13
2023-04-07T02:05:42.846Z,7.05
2023-04-07T02:06:42.818Z,6.97
2023-04-07T02:07:42.757Z,7.00
2023-04-07T02:08:42.727Z,7.13
2023-04-07T02:09:42.719Z,7.00
2023-04-07T02:10:42.776Z,7.13
2023-04-07T02:11:42.763Z,7.07
2023-04-07T02:12:42.693Z,7.11
2023-04-07T02:13:42.686Z,7.07
2023-04-07T02:14:42.671Z,7.07
2023-04-07T02:15:42.653Z,7.13
2023-04-07T02:16:42.744Z,7.11
2023-04-07T02:17:42.652Z,7.14
2023-04-07T02:18:42.639Z,7.14
2023-04-07T02:19:42.618Z,7.07
2023-04-07T02:20:42.594Z,7.17
2023-04-07T02:21:42.693Z,7.15
2023-04-07T02:22:42.624Z,7.21
2023-04-07T02:23:42.573Z,7.14
2023-04-07T02:24:42.565Z,7.15
2023-04-07T02:25:42.546Z,7.20
2023-04-07T02:26:42.537Z,7.21
2023-04-07T02:27:42.591Z,7.11
2023-04-07T02:28:42.542Z,7.15
2023-04-07T02:29:42.504Z,7.23
2023-04-07T02:30:42.515Z,7.17
2023-04-07T02:31:42.536Z,7.18
2023-04-07T02:32:42.591Z,7.18
2023-04-07T02:33:42.458Z,7.11
2023-04-07T02:34:42.550Z,7.18
2023-04-07T02:35:42.458Z,7.13
2023-04-07T02:36:42.436Z,7.25
2023-04-07T02:37:42.486Z,7.28
2023-04-07T02:38:42.409Z,7.28
2023-04-07T02:39:42.414Z,7.28
2023-04-07T02:40:42.406Z,7.20
2023-04-07T02:41:42.398Z,7.25
2023-04-07T02:42:42.421Z,7.31
2023-04-07T02:43:42.369Z,7.25
2023-04-07T02:44:42.358Z,7.32
2023-04-07T02:45:42.379Z,7.23
2023-04-07T02:46:42.347Z,7.18
2023-04-07T02:47:42.413Z,7.18
2023-04-07T02:48:42.373Z,7.18
2023-04-07T02:49:42.303Z,7.14
2023-04-07T02:50:42.284Z,7.17
2023-04-07T02:51:42.271Z,7.14
2023-04-07T02:52:42.279Z,7.18
2023-04-07T02:53:42.329Z,7.18
2023-04-07T02:54:42.239Z,7.11
2023-04-07T02:55:42.241Z,7.10
2023-04-07T02:56:42.214Z,7.00
2023-04-07T02:57:42.216Z,7.03
2023-04-07T02:58:42.291Z,7.05
2023-04-07T02:59:42.198Z,6.97
2023-04-07T03:00:42.173Z,6.97
2023-04-07T03:01:42.230Z,7.00
2023-04-07T03:02:42.275Z,7.10
2023-04-07T03:03:42.370Z,6.99
2023-04-07T03:04:42.166Z,7.05
2023-04-07T03:05:42.130Z,6.97
2023-04-07T03:06:42.111Z,6.99
2023-04-07T03:07:42.108Z,7.00
2023-04-07T03:08:42.199Z,6.97
2023-04-07T03:09:42.102Z,7.02
2023-04-07T03:10:42.090Z,7.02
2023-04-07T03:11:42.148Z,7.03
2023-04-07T03:12:42.050Z,7.00
2023-04-07T03:13:42.119Z,7.03
2023-04-07T03:14:42.044Z,7.03
2023-04-07T03:15:42.031Z,7.06
2023-04-07T03:16:42.133Z,6.96
2023-04-07T03:17:42.032Z,7.03
2023-04-07T03:18:41.994Z,6.99
2023-04-07T03:19:42.003Z,7.00
2023-04-07T03:20:41.996Z,6.95
2023-04-07T03:21:42.020Z,6.99
2023-04-07T03:22:41.992Z,6.89
2023-04-07T03:23:42.029Z,6.99
2023-04-07T03:24:41.924Z,6.97
2023-04-07T03:25:41.944Z,6.95
2023-04-07T03:26:41.973Z,6.93
2023-04-07T03:27:41.908Z,6.99
2023-04-07T03:28:41.915Z,6.93
2023-04-07T03:29:41.927Z,6.93
2023-04-07T03:30:41.885Z,6.93
2023-04-07T03:31:41.868Z,6.88
2023-04-07T03:32:41.918Z,6.92
2023-04-07T03:33:41.840Z,6.93
2023-04-07T03:34:41.831Z,6.93
2023-04-07T03:35:41.933Z,6.95
2023-04-07T03:36:41.818Z,6.85
2023-04-07T03:37:41.863Z,6.89
2023-04-07T03:38:41.786Z,6.84
2023-04-07T03:39:41.787Z,6.84
2023-04-07T03:40:41.840Z,6.85
2023-04-07T03:41:41.778Z,6.85
2023-04-07T03:42:41.815Z,6.85
2023-04-07T03:43:41.727Z,6.89
2023-04-07T03:44:41.730Z,6.88
2023-04-07T03:45:41.785Z,6.96
2023-04-07T03:46:41.807Z,6.89
2023-04-07T03:47:42.115Z,6.82
2023-04-07T03:48:41.682Z,6.82
2023-04-07T03:49:41.682Z,6.85
2023-04-07T03:50:41.677Z,6.87
2023-04-07T03:51:41.711Z,6.82
2023-04-07T03:52:41.649Z,6.85
2023-04-07T03:53:41.755Z,6.88
2023-04-07T03:54:41.617Z,6.87
2023-04-07T03:55:41.614Z,6.82
2023-04-07T03:56:41.605Z,6.88
2023-04-07T03:57:41.606Z,6.85
2023-04-07T03:58:41.642Z,6.93
2023-04-07T03:59:41.657Z,6.84
2023-04-07T04:00:41.566Z,6.92
2023-04-07T04:01:41.605Z,6.87
2023-04-07T04:02:41.618Z,6.85
2023-04-07T04:03:41.632Z,6.84
2023-04-07T04:04:41.557Z,6.82
2023-04-07T04:05:41.585Z,6.92
2023-04-07T04:06:41.572Z,6.88
2023-04-07T04:07:41.498Z,6.88
2023-04-07T04:08:41.476Z,6.82
2023-04-07T04:09:41.456Z,6.87
2023-04-07T04:10:41.454Z,6.93
2023-04-07T04:11:41.533Z,6.82
2023-04-07T04:12:41.420Z,6.88
2023-04-07T04:13:41.478Z,6.85
2023-04-07T04:14:41.411Z,6.84
2023-04-07T04:15:41.444Z,6.92
2023-04-07T04:16:41.392Z,6.87
2023-04-07T04:17:41.513Z,6.85
2023-04-07T04:18:41.368Z,6.89
2023-04-07T04:19:41.366Z,6.84
2023-04-07T04:20:41.417Z,6.82
2023-04-07T04:21:41.336Z,6.85
2023-04-07T04:22:41.333Z,6.81
2023-04-07T04:23:41.333Z,6.89
2023-04-07T04:24:41.309Z,6.84
2023-04-07T04:25:41.326Z,6.81
2023-04-07T04:26:41.374Z,6.97
2023-04-07T04:27:41.286Z,6.99
2023-04-07T04:28:41.266Z,6.99
2023-04-07T04:29:41.347Z,6.88
2023-04-07T04:30:41.242Z,6.93
2023-04-07T04:31:41.327Z,6.89
2023-04-07T04:32:41.243Z,6.82
2023-04-07T04:33:41.213Z,6.84
2023-04-07T04:34:41.196Z,6.82
2023-04-07T04:35:41.258Z,6.84
2023-04-07T04:36:41.214Z,6.82
2023-04-07T04:37:41.179Z,6.82
2023-04-07T04:38:41.163Z,6.81
2023-04-07T04:39:41.153Z,6.92
2023-04-07T04:40:41.222Z,6.82
2023-04-07T04:41:41.141Z,6.82
2023-04-07T04:42:41.123Z,6.87
2023-04-07T04:43:42.164Z,6.85
2023-04-07T04:44:41.111Z,6.89
2023-04-07T04:45:41.170Z,6.88
2023-04-07T04:46:41.142Z,6.87
2023-04-07T04:47:41.192Z,6.85
2023-04-07T04:48:41.107Z,6.88
2023-04-07T04:49:41.057Z,6.82
2023-04-07T04:50:41.044Z,6.79
2023-04-07T04:51:41.052Z,6.84
2023-04-07T04:52:41.107Z,6.82
2023-04-07T04:53:41.017Z,6.78
2023-04-07T04:54:40.996Z,6.79
2023-04-07T04:55:40.999Z,6.82
2023-04-07T04:56:40.965Z,6.84
2023-04-07T04:57:41.043Z,6.84
2023-04-07T04:58:40.941Z,6.78
2023-04-07T04:59:40.948Z,6.79
2023-04-07T05:00:40.958Z,6.81
2023-04-07T05:01:41.040Z,6.81
2023-04-07T05:02:41.142Z,6.84
2023-04-07T05:03:41.126Z,6.81
2023-04-07T05:04:40.957Z,6.79
2023-04-07T05:05:40.878Z,6.82
2023-04-07T05:06:40.904Z,6.82
2023-04-07T05:07:40.914Z,6.82
2023-04-07T05:08:40.865Z,6.82
2023-04-07T05:09:40.985Z,6.84
2023-04-07T05:10:40.879Z,6.78
2023-04-07T05:11:40.828Z,6.79
2023-04-07T05:12:40.919Z,6.77
2023-04-07T05:13:40.784Z,6.79
2023-04-07T05:14:40.772Z,6.84
2023-04-07T05:15:40.788Z,6.81
2023-04-07T05:16:41.068Z,6.79
2023-04-07T05:17:40.835Z,6.79
2023-04-07T05:18:40.780Z,6.79
2023-04-07T05:19:40.727Z,6.81
2023-04-07T05:20:40.714Z,6.81
2023-04-07T05:21:40.764Z,6.75
2023-04-07T05:22:40.725Z,6.81
2023-04-07T05:23:40.715Z,6.82
2023-04-07T05:24:40.672Z,6.81
2023-04-07T05:25:40.710Z,6.84
2023-04-07T05:26:40.738Z,6.77
2023-04-07T05:27:40.653Z,6.85
2023-04-07T05:28:40.641Z,6.79
2023-04-07T05:29:40.623Z,6.87
2023-04-07T05:30:40.629Z,6.82
2023-04-07T05:31:40.715Z,6.84
2023-04-07T05:32:40.722Z,6.92
2023-04-07T05:33:40.708Z,6.87
2023-04-07T05:34:40.573Z,6.84
2023-04-07T05:35:40.608Z,6.84
2023-04-07T05:36:40.634Z,6.97
2023-04-07T05:37:40.533Z,6.88
2023-04-07T05:38:40.548Z,6.93
2023-04-07T05:39:40.522Z,6.95
2023-04-07T05:40:40.521Z,6.93
2023-04-07T05:41:40.502Z,6.95
2023-04-07T05:42:40.605Z,6.92
2023-04-07T05:43:40.545Z,6.93
2023-04-07T05:44:40.472Z,7.00
2023-04-07T05:45:40.477Z,6.88
2023-04-07T05:46:40.453Z,6.95
2023-04-07T05:47:40.493Z,6.88
2023-04-07T05:48:40.435Z,7.02
2023-04-07T05:49:40.527Z,6.97
2023-04-07T05:50:40.423Z,6.95
2023-04-07T05:51:40.467Z,7.02
2023-04-07T05:52:40.438Z,7.02
2023-04-07T05:53:40.389Z,6.99
2023-04-07T05:54:40.431Z,7.05
2023-04-07T05:55:40.358Z,6.99
2023-04-07T05:56:40.351Z,7.05
2023-04-07T05:57:40.447Z,7.00
2023-04-07T05:58:40.353Z,7.05
2023-04-07T05:59:40.367Z,6.97
2023-04-07T06:00:40.294Z,7.06
2023-04-07T06:01:40.372Z,6.97
2023-04-07T06:02:40.439Z,6.99
2023-04-07T06:03:40.377Z,6.99
2023-04-07T06:04:40.386Z,7.10
2023-04-07T06:05:40.393Z,7.03
2023-04-07T06:06:40.242Z,7.03
2023-04-07T06:07:40.240Z,7.02
2023-04-07T06:08:40.219Z,7.02
2023-04-07T06:09:40.355Z,7.02
2023-04-07T06:10:40.234Z,7.10
2023-04-07T06:11:40.199Z,7.10
2023-04-07T06:12:40.232Z,7.07
2023-04-07T06:13:40.183Z,7.11
2023-04-07T06:14:40.176Z,7.18
2023-04-07T06:15:40.323Z,7.14
2023-04-07T06:16:40.264Z,7.14
2023-04-07T06:17:40.203Z,7.20
2023-04-07T06:18:40.198Z,7.21
2023-04-07T06:19:40.104Z,7.18
2023-04-07T06:20:40.096Z,7.15
2023-04-07T06:21:40.145Z,7.10
2023-04-07T06:22:40.074Z,7.13
2023-04-07T06:23:40.153Z,7.11
2023-04-07T06:24:40.102Z,7.23
2023-04-07T06:25:40.071Z,7.18
2023-04-07T06:26:40.110Z,7.25
2023-04-07T06:27:40.027Z,7.28
2023-04-07T06:28:40.039Z,7.28
2023-04-07T06:29:40.021Z,7.24
2023-04-07T06:30:40.081Z,7.33
2023-04-07T06:31:40.048Z,7.31
2023-04-07T06:32:40.011Z,7.32
2023-04-07T06:33:39.981Z,7.35
2023-04-07T06:34:40.002Z,7.33
2023-04-07T06:35:39.953Z,7.32
2023-04-07T06:36:39.948Z,7.32
2023-04-07T06:37:40.038Z,7.33
2023-04-07T06:38:39.925Z,7.39
2023-04-07T06:39:39.901Z,7.39
2023-04-07T06:40:40.036Z,7.40
2023-04-07T06:41:39.887Z,7.39
2023-04-07T06:42:39.929Z,7.38
2023-04-07T06:43:39.892Z,7.38
2023-04-07T06:44:39.885Z,7.39
2023-04-07T06:45:39.840Z,7.40
2023-04-07T06:46:40.062Z,7.39
2023-04-07T06:47:39.920Z,7.36
2023-04-07T06:48:39.842Z,7.43
2023-04-07T06:49:39.826Z,7.45
2023-04-07T06:50:39.787Z,7.48
2023-04-07T06:51:39.779Z,7.47
2023-04-07T06:52:39.997Z,7.40
2023-04-07T06:53:39.758Z,7.51
2023-04-07T06:54:39.752Z,7.48
2023-04-07T06:55:39.754Z,7.45
2023-04-07T06:56:39.720Z,7.47
2023-04-07T06:57:39.778Z,7.48
2023-04-07T06:58:39.701Z,7.45
2023-04-07T06:59:39.682Z,7.42
2023-04-07T07:00:39.673Z,7.48
2023-04-07T07:01:40.111Z,7.45
2023-04-07T07:02:39.909Z,7.56
2023-04-07T07:03:39.722Z,7.58
2023-04-07T07:04:39.658Z,7.54
2023-04-07T07:05:39.622Z,7.56
2023-04-07T07:06:39.612Z,7.53
2023-04-07T07:07:39.686Z,7.53
2023-04-07T07:08:39.589Z,7.53
2023-04-07T07:09:39.593Z,7.60
2023-04-07T07:10:39.643Z,7.48
2023-04-07T07:11:39.597Z,7.58
2023-04-07T07:12:39.624Z,7.57
2023-04-07T07:13:39.553Z,7.56
2023-04-07T07:14:39.544Z,7.54
2023-04-07T07:15:39.569Z,7.57
2023-04-07T07:16:39.526Z,7.56
2023-04-07T07:17:39.550Z,7.53
2023-04-07T07:18:39.551Z,7.53
2023-04-07T07:19:39.489Z,7.60
2023-04-07T07:20:39.503Z,7.60
2023-04-07T07:21:39.468Z,7.70
2023-04-07T07:22:39.470Z,7.57
2023-04-07T07:23:39.443Z,7.69
2023-04-07T07:24:39.516Z,7.69
2023-04-07T07:25:39.431Z,7.63
2023-04-07T07:26:39.424Z,7.69
2023-04-07T07:27:39.386Z,7.70
2023-04-07T07:28:39.499Z,7.72
2023-04-07T07:29:39.439Z,7.69
2023-04-07T07:30:39.381Z,7.79
2023-04-07T07:31:39.378Z,7.77
2023-04-07T07:32:39.627Z,7.87
2023-04-07T07:33:39.432Z,7.85
2023-04-07T07:34:39.321Z,7.75
2023-04-07T07:35:39.365Z,7.73
2023-04-07T07:36:39.335Z,7.83
2023-04-07T07:37:39.292Z,7.82
2023-04-07T07:38:39.333Z,7.83
2023-04-07T07:39:39.272Z,7.77
2023-04-07T07:40:39.271Z,7.87
2023-04-07T07:41:39.279Z,7.91
2023-04-07T07:42:39.552Z,7.97
2023-04-07T07:43:39.301Z,7.94
2023-04-07T07:44:39.219Z,7.93
2023-04-07T07:45:39.478Z,7.98
2023-04-07T07:46:39.261Z,8.08
2023-04-07T07:47:39.323Z,8.01
2023-04-07T07:48:39.184Z,8.01
2023-04-07T07:49:39.175Z,8.15
2023-04-07T07:50:39.301Z,8.00
2023-04-07T07:51:39.159Z,8.01
2023-04-07T07:52:39.220Z,7.98
2023-04-07T07:53:39.185Z,8.00
2023-04-07T07:54:39.110Z,8.01
2023-04-07T07:55:39.166Z,8.01
2023-04-07T07:56:39.100Z,8.05
2023-04-07T07:57:39.112Z,7.97
2023-04-07T07:58:39.135Z,7.98
2023-04-07T07:59:39.056Z,7.98
2023-04-07T08:00:39.071Z,8.01
2023-04-07T08:01:39.059Z,8.08
2023-04-07T08:02:39.145Z,8.20
2023-04-07T08:03:39.281Z,8.18
2023-04-07T08:04:39.067Z,8.24
2023-04-07T08:05:38.997Z,8.30
2023-04-07T08:06:39.027Z,8.36
2023-04-07T08:07:38.984Z,8.33
2023-04-07T08:08:39.026Z,8.33
2023-04-07T08:09:38.961Z,8.30
2023-04-07T08:10:38.955Z,8.30
2023-04-07T08:11:38.941Z,8.24
2023-04-07T08:12:38.942Z,8.20
2023-04-07T08:13:38.983Z,8.31
2023-04-07T08:14:38.936Z,8.33
2023-04-07T08:15:38.898Z,8.33
2023-04-07T08:16:39.025Z,8.31
2023-04-07T08:17:38.889Z,8.31
2023-04-07T08:18:38.905Z,8.31
2023-04-07T08:19:38.864Z,8.30
2023-04-07T08:20:38.829Z,8.33
2023-04-07T08:21:38.891Z,8.36
2023-04-07T08:22:38.815Z,8.28
2023-04-07T08:23:38.800Z,8.27
2023-04-07T08:24:38.804Z,8.33
2023-04-07T08:25:38.785Z,8.27
2023-04-07T08:26:38.858Z,8.33
2023-04-07T08:27:38.766Z,8.34
2023-04-07T08:28:38.748Z,8.33
2023-04-07T08:29:38.772Z,8.36
2023-04-07T08:30:38.808Z,8.34
2023-04-07T08:31:38.770Z,8.34
2023-04-07T08:32:38.754Z,8.33
2023-04-07T08:33:38.703Z,8.36
2023-04-07T08:34:38.682Z,8.44
2023-04-07T08:35:38.738Z,8.48
2023-04-07T08:36:38.665Z,8.38
2023-04-07T08:37:38.726Z,8.44
2023-04-07T08:38:38.644Z,8.44
2023-04-07T08:39:38.629Z,8.42
2023-04-07T08:40:38.613Z,8.44
2023-04-07T08:41:38.717Z,8.44
2023-04-07T08:42:38.609Z,8.37
2023-04-07T08:43:38.667Z,8.42
2023-04-07T08:44:38.595Z,8.44
2023-04-07T08:45:38.588Z,8.44
2023-04-07T08:46:38.594Z,8.45
2023-04-07T08:47:38.565Z,8.46
2023-04-07T08:48:38.598Z,8.58
2023-04-07T08:49:38.791Z,8.51
2023-04-07T08:50:38.536Z,8.56
2023-04-07T08:51:38.506Z,8.55
2023-04-07T08:52:38.524Z,8.58
2023-04-07T08:53:38.579Z,8.52
2023-04-07T08:54:38.473Z,8.56
2023-04-07T08:55:38.462Z,8.53
2023-04-07T08:56:38.456Z,8.63
2023-04-07T08:57:38.442Z,8.60
2023-04-07T08:58:38.521Z,8.52
2023-04-07T08:59:38.422Z,8.70
2023-04-07T09:00:38.413Z,8.63
2023-04-07T09:01:38.561Z,8.63
2023-04-07T09:02:38.431Z,8.60
2023-04-07T09:03:38.533Z,8.67
2023-04-07T09:04:38.372Z,8.63
2023-04-07T09:05:38.355Z,8.69
2023-04-07T09:06:38.343Z,8.69
2023-04-07T09:07:38.408Z,8.66
2023-04-07T09:08:38.323Z,8.67
2023-04-07T09:09:38.337Z,8.71
2023-04-07T09:10:38.407Z,8.74
2023-04-07T09:11:38.294Z,8.79
2023-04-07T09:12:38.373Z,8.74
2023-04-07T09:13:38.269Z,8.79
2023-04-07T09:14:38.250Z,8.85
2023-04-07T09:15:39.006Z,8.84
2023-04-07T09:16:38.560Z,8.82
2023-04-07T09:17:39.694Z,8.91
2023-04-07T09:18:38.213Z,9.00
2023-04-07T09:19:38.262Z,9.04
2023-04-07T09:20:38.212Z,9.03
2023-04-07T09:21:38.203Z,9.03
2023-04-07T09:22:38.293Z,9.02
2023-04-07T09:23:38.338Z,8.95
2023-04-07T09:24:38.165Z,9.14
2023-04-07T09:25:38.141Z,9.10
2023-04-07T09:26:38.143Z,9.18
2023-04-07T09:27:38.206Z,9.22
2023-04-07T09:28:38.318Z,9.23
2023-04-07T09:29:38.101Z,9.28
2023-04-07T09:30:38.085Z,9.29
2023-04-07T09:31:38.138Z,9.40
2023-04-07T09:32:38.311Z,9.44
2023-04-07T09:33:38.221Z,9.43
2023-04-07T09:34:40.817Z,9.43
2023-04-07T09:35:38.083Z,9.48
2023-04-07T09:36:38.066Z,9.58
2023-04-07T09:37:38.163Z,9.68
2023-04-07T09:38:38.036Z,9.68
2023-04-07T09:39:37.984Z,9.68
2023-04-07T09:40:38.082Z,9.66
2023-04-07T09:41:38.000Z,9.66
2023-04-07T09:42:37.986Z,9.66
2023-04-07T09:43:38.047Z,9.69
2023-04-07T09:44:37.942Z,9.73
2023-04-07T09:45:37.942Z,9.66
2023-04-07T09:46:38.049Z,9.69
2023-04-07T09:47:37.968Z,9.59
2023-04-07T09:48:38.102Z,9.66
2023-04-07T09:49:37.930Z,9.56
2023-04-07T09:50:37.883Z,9.62
2023-04-07T09:51:38.178Z,9.66
2023-04-07T09:52:37.873Z,9.68
2023-04-07T09:53:37.853Z,9.77
2023-04-07T09:54:37.960Z,9.76
2023-04-07T09:55:37.884Z,9.77
2023-04-07T09:56:37.824Z,9.64
2023-04-07T09:57:37.852Z,9.66
2023-04-07T09:58:37.861Z,9.56
2023-04-07T09:59:37.799Z,9.61
2023-04-07T10:00:37.841Z,9.68
2023-04-07T10:01:37.996Z,9.66
2023-04-07T10:02:37.949Z,9.66
2023-04-07T10:03:37.877Z,9.59
2023-04-07T10:04:37.748Z,9.73
2023-04-07T10:05:37.944Z,9.68
2023-04-07T10:06:37.733Z,9.66
2023-04-07T10:07:37.707Z,9.64
2023-04-07T10:08:37.798Z,9.66
2023-04-07T10:09:37.697Z,9.65
2023-04-07T10:10:37.772Z,9.59
2023-04-07T10:11:37.674Z,9.59
2023-04-07T10:12:37.678Z,9.54
2023-04-07T10:13:37.666Z,9.48
2023-04-07T10:14:39.809Z,9.59
2023-04-07T10:15:37.623Z,9.51
2023-04-07T10:16:37.770Z,9.51
2023-04-07T10:17:37.705Z,9.47
2023-04-07T10:18:37.655Z,9.50
2023-04-07T10:19:37.586Z,9.48
2023-04-07T10:20:37.577Z,9.46
2023-04-07T10:21:37.653Z,9.54
2023-04-07T10:22:37.551Z,9.48
2023-04-07T10:23:37.694Z,9.62
2023-04-07T10:24:37.728Z,9.66
2023-04-07T10:25:37.523Z,9.76
2023-04-07T10:26:38.063Z,9.83
2023-04-07T10:27:37.779Z,9.80
2023-04-07T10:28:37.491Z,9.83
2023-04-07T10:29:37.482Z,9.91
2023-04-07T10:30:37.477Z,9.87
2023-04-07T10:31:37.515Z,9.84
2023-04-07T10:32:37.491Z,9.82
2023-04-07T10:33:37.473Z,9.83
2023-04-07T10:34:37.475Z,9.87
2023-04-07T10:35:37.447Z,9.86
2023-04-07T10:36:37.407Z,9.97
2023-04-07T10:37:37.510Z,9.94
2023-04-07T10:38:37.451Z,9.91
2023-04-07T10:39:37.366Z,9.97
2023-04-07T10:40:37.360Z,9.91
2023-04-07T10:41:37.381Z,9.92
2023-04-07T10:42:37.372Z,10.04
2023-04-07T10:43:37.392Z,9.91
2023-04-07T10:44:37.377Z,9.99
2023-04-07T10:45:37.445Z,9.89
2023-04-07T10:46:37.381Z,9.92
2023-04-07T10:47:37.324Z,9.94
2023-04-07T10:48:37.365Z,9.89
2023-04-07T10:49:37.280Z,9.95
2023-04-07T10:50:37.312Z,9.92
2023-04-07T10:51:37.261Z,9.92
2023-04-07T10:52:37.235Z,9.91
2023-04-07T10:53:37.303Z,9.86
2023-04-07T10:54:37.214Z,9.91
2023-04-07T10:55:37.204Z,9.89
2023-04-07T10:56:37.211Z,9.97
2023-04-07T10:57:37.191Z,10.05
2023-04-07T10:58:37.229Z,10.05
2023-04-07T10:59:37.164Z,10.25
2023-04-07T11:00:37.172Z,10.19
2023-04-07T11:01:37.200Z,10.25
2023-04-07T11:02:37.316Z,10.35
2023-04-07T11:03:37.459Z,10.37
2023-04-07T11:04:37.236Z,10.41
2023-04-07T11:05:37.099Z,10.54
2023-04-07T11:06:37.091Z,10.68
2023-04-07T11:07:37.094Z,10.64
2023-04-07T11:08:37.146Z,10.74
2023-04-07T11:09:37.121Z,10.75
2023-04-07T11:10:37.102Z,10.76
2023-04-07T11:11:37.036Z,10.87
2023-04-07T11:12:37.026Z,10.81
2023-04-07T11:13:37.077Z,10.94
2023-04-07T11:14:37.081Z,10.92
2023-04-07T11:15:39.330Z,10.89
2023-04-07T11:16:37.042Z,10.99
2023-04-07T11:17:37.175Z,11.04
2023-04-07T11:18:37.026Z,10.92
2023-04-07T11:19:37.059Z,10.99
2023-04-07T11:20:36.937Z,11.04
2023-04-07T11:21:36.939Z,10.99
2023-04-07T11:22:36.907Z,10.99
2023-04-07T11:23:36.976Z,10.96
2023-04-07T11:24:36.889Z,11.07
2023-04-07T11:25:36.892Z,11.02
2023-04-07T11:26:36.899Z,10.99
2023-04-07T11:27:36.868Z,11.00
2023-04-07T11:28:36.908Z,10.99
2023-04-07T11:29:36.839Z,10.99
2023-04-07T11:30:36.831Z,11.02
2023-04-07T11:31:36.849Z,10.97
2023-04-07T11:32:36.808Z,10.97
2023-04-07T11:33:36.861Z,11.18
2023-04-07T11:34:36.784Z,11.17
2023-04-07T11:35:36.854Z,11.18
2023-04-07T11:36:36.870Z,11.17
2023-04-07T11:37:36.796Z,11.23
2023-04-07T11:38:36.772Z,11.26
2023-04-07T11:39:36.754Z,11.30
2023-04-07T11:40:36.920Z,11.37
2023-04-07T11:41:36.798Z,11.41
2023-04-07T11:42:36.727Z,11.37
2023-04-07T11:43:36.698Z,11.45
2023-04-07T11:44:36.686Z,11.41
2023-04-07T11:45:36.665Z,11.40
2023-04-07T11:46:36.759Z,11.41
2023-04-07T11:47:36.771Z,11.36
2023-04-07T11:48:36.657Z,11.43
2023-04-07T11:49:36.653Z,11.37
2023-04-07T11:50:36.631Z,11.43
2023-04-07T11:51:36.690Z,11.45
2023-04-07T11:52:36.596Z,11.57
2023-04-07T11:53:36.596Z,11.51
2023-04-07T11:54:36.635Z,11.48
2023-04-07T11:55:36.587Z,11.54
2023-04-07T11:56:36.562Z,11.63
2023-04-07T11:57:36.563Z,11.65
2023-04-07T11:58:36.537Z,11.69
2023-04-07T11:59:36.604Z,11.70
2023-04-07T12:00:36.510Z,11.69
2023-04-07T12:01:36.578Z,11.68
2023-04-07T12:02:36.627Z,11.70
2023-04-07T12:03:36.736Z,11.65
2023-04-07T12:04:36.588Z,11.66
2023-04-07T12:05:36.459Z,11.75
2023-04-07T12:06:36.515Z,11.86
2023-04-07T12:07:36.473Z,11.84
2023-04-07T12:08:36.422Z,11.84
2023-04-07T12:09:36.595Z,11.88
2023-04-07T12:10:36.415Z,11.88
2023-04-07T12:11:36.527Z,11.86
2023-04-07T12:12:36.407Z,11.86
2023-04-07T12:13:36.419Z,11.88
2023-04-07T12:14:36.417Z,11.86
2023-04-07T12:15:36.350Z,11.94
2023-04-07T12:16:36.375Z,11.86
2023-04-07T12:17:36.542Z,11.95
2023-04-07T12:18:36.322Z,11.97
2023-04-07T12:19:36.550Z,12.02
2023-04-07T12:20:37.637Z,12.02
2023-04-07T12:21:36.297Z,12.07
2023-04-07T12:22:36.361Z,12.18
2023-04-07T12:23:36.264Z,12.09
2023-04-07T12:24:36.317Z,12.24
2023-04-07T12:25:36.299Z,12.20
2023-04-07T12:26:38.266Z,12.15
2023-04-07T12:27:42.642Z,12.20
2023-04-07T12:28:37.237Z,12.15
2023-04-07T12:29:36.233Z,12.09
2023-04-07T12:30:36.195Z,12.18
2023-04-07T12:31:36.316Z,12.12
2023-04-07T12:32:36.227Z,12.10
2023-04-07T12:33:36.164Z,12.09
2023-04-07T12:34:36.168Z,12.07
2023-04-07T12:35:36.188Z,11.99
2023-04-07T12:36:36.197Z,12.03
2023-04-07T12:37:36.125Z,11.87
2023-04-07T12:38:36.195Z,11.88
2023-04-07T12:39:36.107Z,11.88
2023-04-07T12:40:36.091Z,11.84
2023-04-07T12:41:36.158Z,11.84
2023-04-07T12:42:36.124Z,11.88
2023-04-07T12:43:36.065Z,11.86
2023-04-07T12:44:36.107Z,11.87
2023-04-07T12:45:36.125Z,11.84
2023-04-07T12:46:36.057Z,11.80
2023-04-07T12:47:36.021Z,11.86
2023-04-07T12:48:36.037Z,11.73
2023-04-07T12:49:36.081Z,11.80
2023-04-07T12:50:36.010Z,11.75
2023-04-07T12:51:35.976Z,11.78
2023-04-07T12:52:35.985Z,11.73
2023-04-07T12:53:36.021Z,11.70
2023-04-07T12:54:35.938Z,11.69
2023-04-07T12:55:35.937Z,11.73
2023-04-07T12:56:35.969Z,11.77
2023-04-07T12:57:35.920Z,11.75
2023-04-07T12:58:35.989Z,11.72
2023-04-07T12:59:35.882Z,11.91
2023-04-07T13:00:35.886Z,11.91
2023-04-07T13:01:36.020Z,11.87
2023-04-07T13:02:36.011Z,11.90
2023-04-07T13:03:36.091Z,11.88
2023-04-07T13:04:35.966Z,11.87
2023-04-07T13:05:35.840Z,11.86
2023-04-07T13:06:35.818Z,11.90
2023-04-07T13:07:35.797Z,11.97
2023-04-07T13:08:35.868Z,11.99
2023-04-07T13:09:35.791Z,12.09
2023-04-07T13:10:35.785Z,12.10
2023-04-07T13:11:35.748Z,12.18
2023-04-07T13:12:35.785Z,12.24
2023-04-07T13:13:35.809Z,12.21